Time;durP1;ratioP1;P1;durP2;ratioP2;P2;SDS_P1;SDS_P2;PMS_P1;PMS_P2;Temp;Humidity;BMP_temperature;BMP_pressure;BME280_temperature;BME280_humidity;BME280_pressure;Samples;Min_cycle;Max_cycle;Signal;HPM_P1;HPM_P2
2022/07/01 00:01:55;;;;;;;3.35;1.23;;;;;;;11.16;87.32;100227.19;6343004;22;20006;-75
2022/07/01 00:04:20;;;;;;;5.40;1.88;;;;;;;11.15;87.66;100228.28;6333589;22;20007;-74
2022/07/01 00:06:48;;;;;;;2.10;1.05;;;;;;;11.28;87.97;100248.81;6316799;22;20015;-73
2022/07/01 00:09:16;;;;;;;1.95;1.20;;;;;;;11.25;88.13;100236.50;6314927;22;20045;-72
2022/07/01 00:11:41;;;;;;;3.30;1.30;;;;;;;11.21;88.03;100232.66;6317461;22;20028;-73
2022/07/01 00:14:09;;;;;;;3.85;1.40;;;;;;;11.22;88.05;100234.31;6314804;22;20052;-74
2022/07/01 00:16:37;;;;;;;2.75;1.13;;;;;;;11.16;87.93;100229.94;6289795;22;20007;-74
2022/07/01 00:19:03;;;;;;;1.55;1.20;;;;;;;11.07;87.89;100221.47;6287744;22;20019;-73
2022/07/01 00:21:31;;;;;;;1.50;1.02;;;;;;;10.97;87.87;100216.00;6342085;22;20002;-73
2022/07/01 00:23:59;;;;;;;3.45;1.35;;;;;;;10.92;88.27;100225.03;6288805;22;20006;-72
2022/07/01 00:26:25;;;;;;;2.65;1.42;;;;;;;10.88;88.33;100237.59;6341161;22;20005;-73
2022/07/01 00:28:51;;;;;;;2.38;1.38;;;;;;;10.80;88.80;100243.59;6342426;22;20003;-73
2022/07/01 00:31:19;;;;;;;1.88;1.00;;;;;;;10.63;88.90;100225.53;6313834;22;20089;-72
2022/07/01 00:33:46;;;;;;;6.25;1.25;;;;;;;10.61;88.90;100241.38;6342813;22;20002;-73
2022/07/01 00:36:14;;;;;;;3.72;0.90;;;;;;;10.55;89.38;100231.53;6314089;22;20014;-73
2022/07/01 00:38:45;;;;;;;0.85;0.70;;;;;;;10.51;88.99;100235.88;6314800;22;20006;-73
2022/07/01 00:41:16;;;;;;;0.77;0.52;;;;;;;10.44;89.55;100232.59;6342434;22;20002;-73
2022/07/01 00:43:58;;;;;;;1.50;0.60;;;;;;;10.36;89.67;100228.47;6290502;22;20017;-72
2022/07/01 00:46:26;;;;;;;2.15;1.27;;;;;;;10.38;90.26;100241.88;6314712;22;20099;-73
2022/07/01 00:49:02;;;;;;;3.22;1.00;;;;;;;10.30;90.31;100244.00;6314965;22;20543;-73
2022/07/01 00:51:28;;;;;;;1.50;0.65;;;;;;;10.18;90.04;100232.50;6314986;22;20030;-73
2022/07/01 00:54:10;;;;;;;2.88;1.08;;;;;;;10.18;90.78;100226.19;6287395;22;20013;-73
2022/07/01 00:56:51;;;;;;;2.42;0.95;;;;;;;10.05;90.97;100208.41;6292922;22;20003;-74
2022/07/01 00:59:28;;;;;;;3.60;0.93;;;;;;;10.01;91.31;100220.97;6343389;22;19991;-73
2022/07/01 01:02:01;;;;;;;4.88;0.77;;;;;;;9.83;91.79;100201.22;6343720;22;19999;-74
2022/07/01 01:04:29;;;;;;;2.22;1.00;;;;;;;9.88;91.55;100220.34;6342025;22;20051;-72
2022/07/01 01:06:54;;;;;;;4.68;1.55;;;;;;;9.92;92.00;100234.31;6317599;22;20010;-78
2022/07/01 01:09:20;;;;;;;2.58;0.93;;;;;;;9.85;92.46;100234.53;6316169;22;20010;-75
2022/07/01 01:11:50;;;;;;;7.32;1.25;;;;;;;9.74;92.64;100222.75;6291053;22;20078;-71
2022/07/01 01:14:15;;;;;;;4.65;1.45;;;;;;;9.67;93.15;100221.34;6312552;22;20003;-74
2022/07/01 01:16:41;;;;;;;2.40;1.17;;;;;;;9.59;93.48;100228.97;6312455;22;20130;-74
2022/07/01 01:19:08;;;;;;;2.08;1.10;;;;;;;9.56;93.37;100237.69;6340987;22;20010;-75
2022/07/01 01:21:34;;;;;;;4.32;1.50;;;;;;;9.54;94.12;100242.56;6313190;22;20010;-75
2022/07/01 01:24:03;;;;;;;3.85;1.10;;;;;;;9.47;94.73;100238.44;6315135;22;20009;-73
2022/07/01 01:26:29;;;;;;;8.45;1.40;;;;;;;9.34;94.48;100235.06;6308008;22;20081;-74
2022/07/01 01:28:55;;;;;;;3.50;1.30;;;;;;;9.38;95.35;100235.38;6340792;22;20014;-74
2022/07/01 01:31:33;;;;;;;2.05;1.30;;;;;;;9.36;95.53;100242.97;6340838;22;20455;-75
2022/07/01 01:34:01;;;;;;;3.45;1.50;;;;;;;9.20;95.97;100229.25;6340014;22;20003;-75
2022/07/01 01:36:28;;;;;;;3.30;1.55;;;;;;;9.26;95.93;100241.03;6340123;22;20014;-75
2022/07/01 01:38:56;;;;;;;5.40;1.63;;;;;;;9.11;96.12;100227.25;6338777;22;20002;-75
2022/07/01 01:41:22;;;;;;;4.28;1.63;;;;;;;9.12;96.07;100224.25;6310458;22;20044;-75
2022/07/01 01:43:47;;;;;;;6.93;1.90;;;;;;;9.15;96.60;100242.84;6287156;22;20066;-75
2022/07/01 01:46:18;;;;;;;5.75;1.70;;;;;;;9.02;97.16;100219.56;6286637;22;20010;-75
2022/07/01 01:48:46;;;;;;;7.95;1.50;;;;;;;8.98;96.93;100225.78;6287536;22;20014;-75
2022/07/01 01:51:14;;;;;;;7.80;1.80;;;;;;;9.06;97.30;100249.88;6314182;22;20013;-73
2022/07/01 01:53:39;;;;;;;3.88;1.20;;;;;;;8.94;97.57;100241.84;6339671;22;20006;-75
2022/07/01 01:56:05;;;;;;;10.88;1.88;;;;;;;8.87;97.75;100231.16;6340202;22;20010;-75
2022/07/01 01:58:30;;;;;;;5.07;1.55;;;;;;;8.81;97.80;100236.84;6340683;22;20079;-75
2022/07/01 02:00:58;;;;;;;6.43;1.67;;;;;;;8.93;98.01;100263.94;6313714;22;20017;-73
2022/07/01 02:03:28;;;;;;;3.75;1.40;;;;;;;8.81;97.95;100232.19;6314338;22;20359;-75
2022/07/01 02:05:54;;;;;;;4.75;1.30;;;;;;;8.85;97.88;100235.25;6312024;22;20060;-73
2022/07/01 02:08:19;;;;;;;4.32;1.73;;;;;;;9.03;98.21;100262.09;6342328;22;20421;-74
2022/07/01 02:10:50;;;;;;;8.65;1.90;;;;;;;8.95;97.76;100240.78;6315458;22;20006;-75
2022/07/01 02:13:16;;;;;;;4.35;1.48;;;;;;;9.09;97.97;100254.78;6342301;22;19999;-75
2022/07/01 02:15:41;;;;;;;2.92;1.33;;;;;;;9.16;97.62;100266.31;6311980;22;20011;-75
2022/07/01 02:18:06;;;;;;;3.30;1.30;;;;;;;9.04;97.10;100252.84;6288472;22;20508;-74
2022/07/01 02:20:33;;;;;;;1.58;1.10;;;;;;;9.13;97.26;100261.38;6314883;22;20029;-77
2022/07/01 02:22:58;;;;;;;3.17;1.55;;;;;;;9.07;96.98;100256.97;6343642;22;19999;-76
2022/07/01 02:25:24;;;;;;;5.25;1.40;;;;;;;9.04;96.57;100260.22;6290224;22;20010;-77
2022/07/01 02:27:49;;;;;;;12.27;1.55;;;;;;;9.00;96.81;100256.38;6341459;22;20002;-76
2022/07/01 02:30:15;;;;;;;9.60;2.45;;;;;;;9.05;96.94;100256.41;6342099;22;20003;-74
2022/07/01 02:32:40;;;;;;;4.80;1.70;;;;;;;9.08;97.35;100264.06;6341634;22;20011;-75
2022/07/01 02:35:16;;;;;;;;;;;;;;;;;;;;;
2022/07/01 02:37:43;;;;;;;5.03;1.30;;;;;;;9.07;97.37;100256.97;6315657;22;20078;-75
2022/07/01 02:40:09;;;;;;;4.80;1.73;;;;;;;9.12;96.75;100257.00;6342082;22;20022;-74
2022/07/01 02:42:35;;;;;;;8.68;2.08;;;;;;;9.20;96.62;100275.63;6311032;22;20079;-75
2022/07/01 02:45:08;;;;;;;12.27;1.90;;;;;;;9.21;96.23;100281.91;6286176;22;20013;-75
2022/07/01 02:47:38;;;;;;;4.70;1.52;;;;;;;9.25;95.86;100281.09;6342347;22;20444;-77
2022/07/01 02:50:05;;;;;;;2.17;1.27;;;;;;;9.28;95.88;100289.88;6314463;22;20402;-75
2022/07/01 02:52:32;;;;;;;5.00;1.55;;;;;;;9.23;95.43;100283.28;6342429;22;19995;-76
2022/07/01 02:55:10;;;;;;;2.13;1.40;;;;;;;9.12;95.84;100287.00;6312060;22;20006;-76
2022/07/01 02:57:36;;;;;;;2.80;1.30;;;;;;;8.99;95.84;100268.34;6316067;22;20307;-74
2022/07/01 03:00:07;;;;;;;3.95;1.20;;;;;;;9.06;95.96;100293.50;6341277;22;20058;-75
2022/07/01 03:02:33;;;;;;;2.63;1.40;;;;;;;8.93;96.22;100283.03;6343912;22;19999;-75
2022/07/01 03:04:58;;;;;;;3.50;1.25;;;;;;;9.00;96.23;100289.09;6316607;22;20007;-75
2022/07/01 03:07:26;;;;;;;7.03;1.45;;;;;;;8.93;96.17;100281.13;6317334;22;20014;-75
2022/07/01 03:09:52;;;;;;;3.60;1.45;;;;;;;8.94;96.62;100295.59;6314790;22;20007;-76
2022/07/01 03:12:32;;;;;;;3.63;1.48;;;;;;;8.89;96.55;100290.88;6342053;22;20056;-75
2022/07/01 03:15:09;;;;;;;3.30;1.23;;;;;;;8.89;96.92;100294.47;6318813;22;20003;-74
2022/07/01 03:17:36;;;;;;;3.65;1.38;;;;;;;8.85;97.23;100292.50;6315235;22;20105;-75
2022/07/01 03:20:03;;;;;;;3.72;1.38;;;;;;;8.82;97.44;100288.38;6343980;22;20333;-75
2022/07/01 03:22:34;;;;;;;4.03;1.50;;;;;;;8.74;97.73;100288.84;6316898;22;20002;-75
2022/07/01 03:25:00;;;;;;;5.22;1.80;;;;;;;8.74;98.27;100288.84;6290008;22;20336;-75
2022/07/01 03:27:26;;;;;;;5.82;1.70;;;;;;;8.81;98.78;100303.09;6315089;22;20014;-74
2022/07/01 03:29:51;;;;;;;1.30;1.20;;;;;;;8.77;99.11;100284.78;6341436;22;20003;-74
2022/07/01 03:32:20;;;;;;;3.67;1.27;;;;;;;8.84;99.18;100296.31;6316483;22;20382;-75
2022/07/01 03:34:52;;;;;;;6.72;1.88;;;;;;;8.78;99.29;100291.88;6344556;22;20013;-75
2022/07/01 03:37:22;;;;;;;8.55;1.60;;;;;;;8.79;99.55;100294.34;6318126;22;19999;-75
2022/07/01 03:39:51;;;;;;;1.90;1.13;;;;;;;8.69;99.24;100283.34;6342822;22;20022;-75
2022/07/01 03:42:21;;;;;;;4.97;1.58;;;;;;;8.75;99.59;100282.31;6346179;22;20003;-76
2022/07/01 03:44:47;;;;;;;3.40;1.50;;;;;;;8.80;99.81;100289.72;6344080;22;20026;-75
2022/07/01 03:47:12;;;;;;;2.90;1.60;;;;;;;8.88;100.00;100300.97;6290283;22;20006;-74
2022/07/01 03:49:38;;;;;;;2.53;1.55;;;;;;;8.90;99.80;100301.53;6316619;22;20038;-74
2022/07/01 03:52:04;;;;;;;5.80;1.65;;;;;;;8.87;100.00;100290.34;6314602;22;20673;-76
2022/07/01 03:54:30;;;;;;;2.72;1.40;;;;;;;8.97;100.00;100295.88;6316430;22;20009;-74
2022/07/01 03:57:10;;;;;;;2.97;1.40;;;;;;;9.08;99.64;100307.69;6345235;22;20003;-77
2022/07/01 03:59:40;;;;;;;6.43;1.40;;;;;;;9.10;99.67;100291.91;6345051;22;20068;-75
2022/07/01 04:02:09;;;;;;;2.97;1.63;;;;;;;9.18;99.29;100291.41;6317015;22;20417;-75
2022/07/01 04:04:35;;;;;;;11.55;2.00;;;;;;;9.35;98.19;100301.41;6316368;22;20033;-76
2022/07/01 04:07:02;;;;;;;8.70;1.70;;;;;;;9.33;97.30;100292.63;6316513;22;20075;-75
2022/07/01 04:09:29;;;;;;;4.00;1.73;;;;;;;9.50;96.66;100311.59;6345948;22;20013;-75
2022/07/01 04:12:03;;;;;;;3.28;1.30;;;;;;;9.42;96.18;100291.91;6317193;22;20023;-75
2022/07/01 04:14:29;;;;;;;3.97;1.48;;;;;;;9.59;95.47;100310.03;6319968;22;20003;-77
2022/07/01 04:16:57;;;;;;;5.57;1.52;;;;;;;9.60;95.58;100301.56;6292239;22;20216;-76
2022/07/01 04:19:24;;;;;;;8.90;1.85;;;;;;;9.69;95.04;100309.28;6317468;22;20014;-76
2022/07/01 04:24:36;;;;;;;8.50;1.63;;;;;;;9.86;93.86;100306.41;6344365;22;20063;-78
2022/07/01 04:27:04;;;;;;;9.50;1.88;;;;;;;10.01;93.05;100325.59;6316421;22;19998;-76
2022/07/01 04:29:30;;;;;;;4.78;1.60;;;;;;;9.94;92.63;100309.44;6292112;22;20037;-76
2022/07/01 04:31:57;;;;;;;6.05;1.88;;;;;;;10.10;92.49;100334.09;6344581;22;20003;-76
2022/07/01 04:34:22;;;;;;;9.43;1.60;;;;;;;10.10;92.30;100334.94;6317280;22;20325;-75
2022/07/01 04:36:48;;;;;;;5.75;1.60;;;;;;;10.17;92.29;100344.81;6318443;22;20007;-75
2022/07/01 04:39:13;;;;;;;5.03;1.55;;;;;;;10.15;92.10;100323.22;6292227;22;20426;-76
2022/07/01 04:44:23;;;;;;;5.47;1.27;;;;;;;10.29;90.84;100338.03;6343869;22;20076;-74
2022/07/01 04:46:51;;;;;;;3.80;1.50;;;;;;;10.34;91.09;100334.53;6291757;22;20002;-73
2022/07/01 04:49:21;;;;;;;2.55;1.20;;;;;;;10.34;90.60;100325.50;6342700;22;20430;-75
2022/07/01 04:51:50;;;;;;;10.00;1.20;;;;;;;10.48;90.01;100335.69;6317600;22;19999;-76
2022/07/01 04:54:15;;;;;;;7.35;1.48;;;;;;;10.50;89.68;100329.97;6318823;22;20006;-74
2022/07/01 04:56:43;;;;;;;3.08;1.20;;;;;;;10.65;89.73;100340.13;6319111;22;19995;-77
2022/07/01 04:59:15;;;;;;;1.70;1.02;;;;;;;10.64;89.16;100339.31;6294245;22;20078;-75
2022/07/01 05:01:44;;;;;;;4.55;1.50;;;;;;;10.78;89.26;100347.81;6318045;22;20010;-76
2022/07/01 05:04:10;;;;;;;2.22;1.40;;;;;;;10.77;89.01;100326.19;6292279;22;20017;-75
2022/07/01 05:06:36;;;;;;;3.90;1.40;;;;;;;10.80;88.46;100331.13;6317196;22;20009;-74
2022/07/01 05:09:11;;;;;;;3.47;1.17;;;;;;;10.83;88.21;100333.31;6345736;22;19999;-75
2022/07/01 05:11:39;;;;;;;3.67;1.23;;;;;;;11.03;87.62;100345.41;6342701;22;20334;-75
2022/07/01 05:14:12;;;;;;;3.80;1.55;;;;;;;11.05;87.60;100337.75;6319028;22;20029;-75
2022/07/01 05:16:37;;;;;;;3.15;1.40;;;;;;;11.21;87.59;100350.34;6344477;22;20035;-76
2022/07/01 05:22:07;;;;;;;2.00;1.00;;;;;;;11.41;86.57;100340.53;6345280;22;20115;-76
2022/07/01 05:24:32;;;;;;;1.17;0.73;;;;;;;11.69;86.30;100364.59;6317955;22;20013;-73
2022/07/01 05:26:59;;;;;;;2.85;0.80;;;;;;;11.84;85.80;100354.72;6290686;22;20460;-76
2022/07/01 05:29:25;;;;;;;3.53;1.27;;;;;;;11.98;85.34;100353.09;6345085;22;20015;-75
2022/07/01 05:31:53;;;;;;;4.10;1.25;;;;;;;12.15;84.89;100366.50;6317101;22;20010;-76
2022/07/01 05:34:19;;;;;;;2.00;0.80;;;;;;;12.21;84.17;100359.88;6314993;22;20082;-74
2022/07/01 05:36:44;;;;;;;5.13;0.98;;;;;;;12.31;83.65;100364.53;6343066;22;20010;-75
2022/07/01 05:39:12;;;;;;;6.57;1.27;;;;;;;12.36;83.75;100361.75;6315222;22;20098;-76
2022/07/01 05:41:37;;;;;;;3.45;1.05;;;;;;;12.37;83.01;100351.63;6291108;22;20022;-75
2022/07/01 05:44:09;;;;;;;4.72;1.05;;;;;;;12.49;82.94;100354.03;6314622;22;20082;-75
2022/07/01 05:46:39;;;;;;;2.22;0.90;;;;;;;12.62;82.63;100358.13;6290977;22;20003;-75
2022/07/01 05:49:04;;;;;;;1.77;0.88;;;;;;;12.80;81.73;100364.88;6288614;22;20059;-74
2022/07/01 05:51:30;;;;;;;2.80;1.08;;;;;;;12.87;81.01;100365.38;6265880;22;20949;-76
2022/07/01 05:53:56;;;;;;;2.50;1.17;;;;;;;12.91;81.41;100369.22;6317656;22;20002;-75
2022/07/01 05:56:26;;;;;;;7.88;1.73;;;;;;;12.88;80.95;100378.00;6319381;22;20011;-76
2022/07/01 05:58:54;;;;;;;3.72;0.95;;;;;;;12.81;80.94;100359.09;6345409;22;20067;-76
2022/07/01 06:01:19;;;;;;;5.07;1.30;;;;;;;12.81;80.76;100366.53;6315671;22;20062;-74
2022/07/01 06:03:45;;;;;;;5.57;1.13;;;;;;;12.81;81.09;100366.53;6344463;22;20010;-74
2022/07/01 06:06:10;;;;;;;6.32;1.10;;;;;;;12.86;81.52;100374.72;6290598;22;20417;-72
2022/07/01 06:08:35;;;;;;;6.88;1.10;;;;;;;12.93;81.28;100377.97;6342553;22;20376;-74
2022/07/01 06:11:01;;;;;;;6.35;1.27;;;;;;;13.02;81.01;100379.00;6286799;22;20041;-74
2022/07/01 06:13:29;;;;;;;4.30;1.20;;;;;;;13.09;80.58;100379.50;6313743;22;20022;-71
2022/07/01 06:15:57;;;;;;;2.50;1.00;;;;;;;13.13;80.66;100385.28;6340611;22;19998;-74
2022/07/01 06:18:25;;;;;;;5.63;1.27;;;;;;;13.21;80.07;100381.09;6310919;22;20006;-72
2022/07/01 06:20:50;;;;;;;1.63;1.00;;;;;;;13.29;79.91;100383.25;6341153;22;20010;-73
2022/07/01 06:23:16;;;;;;;4.32;1.60;;;;;;;13.27;79.75;100383.53;6312868;22;20022;-74
2022/07/01 06:25:41;;;;;;;3.90;1.20;;;;;;;13.32;79.25;100388.16;6313793;22;20007;-74
2022/07/01 06:28:07;;;;;;;5.00;1.25;;;;;;;13.33;79.02;100388.97;6288238;22;20026;-75
2022/07/01 06:30:32;;;;;;;3.28;0.90;;;;;;;13.32;79.54;100393.66;6316331;22;20087;-75
2022/07/01 06:32:58;;;;;;;6.07;1.10;;;;;;;13.32;78.92;100399.16;6287281;22;20072;-75
2022/07/01 06:35:26;;;;;;;4.30;1.27;;;;;;;13.35;78.99;100404.09;6289189;22;20011;-75
2022/07/01 06:37:51;;;;;;;4.25;0.90;;;;;;;13.35;78.64;100414.28;6313872;22;20033;-75
2022/07/01 06:40:22;;;;;;;8.57;1.33;;;;;;;13.31;78.60;100400.25;6341493;22;19998;-73
2022/07/01 06:42:49;;;;;;;5.50;1.10;;;;;;;13.42;78.71;100412.84;6313728;22;20006;-74
2022/07/01 06:45:15;;;;;;;8.07;1.15;;;;;;;13.48;78.45;100413.63;6342322;22;19994;-74
2022/07/01 06:47:40;;;;;;;4.32;1.38;;;;;;;13.65;77.56;100391.22;6312716;22;20006;-77
2022/07/01 06:50:06;;;;;;;5.45;1.00;;;;;;;13.89;76.49;100409.75;6316390;22;20011;-76
2022/07/01 06:52:32;;;;;;;7.28;1.15;;;;;;;14.08;75.74;100415.34;6314052;22;20041;-74
2022/07/01 06:54:57;;;;;;;7.40;1.17;;;;;;;14.22;75.82;100416.31;6311733;22;20003;-73
2022/07/01 06:57:23;;;;;;;3.30;1.10;;;;;;;14.39;74.91;100417.78;6262266;22;20367;-71
2022/07/01 06:59:49;;;;;;;8.02;1.23;;;;;;;14.62;73.92;100416.97;6288834;22;20006;-72
2022/07/01 07:02:18;;;;;;;5.55;1.08;;;;;;;14.68;73.00;100405.91;6264881;22;20006;-77
2022/07/01 07:05:04;;;;;;;;;;;;;;;;;;;;;
2022/07/01 07:07:37;;;;;;;7.28;1.00;;;;;;;14.78;73.06;100428.63;6340326;22;20066;-72
2022/07/01 07:10:02;;;;;;;4.03;1.20;;;;;;;14.83;72.82;100423.06;6340391;22;20329;-73
2022/07/01 07:12:28;;;;;;;3.63;1.10;;;;;;;14.96;72.62;100426.19;6311489;22;20081;-72
2022/07/01 07:14:53;;;;;;;3.83;1.00;;;;;;;15.14;72.32;100419.91;6261698;22;20013;-72
2022/07/01 07:17:19;;;;;;;2.85;1.00;;;;;;;15.27;71.41;100420.28;6311597;22;20005;-71
2022/07/01 07:19:44;;;;;;;6.18;0.90;;;;;;;15.26;71.74;100426.88;6284583;22;20101;-73
2022/07/01 07:22:10;;;;;;;4.82;0.70;;;;;;;15.24;71.49;100418.09;6291415;22;20011;-73
2022/07/01 07:24:35;;;;;;;2.85;0.88;;;;;;;15.40;71.44;100422.28;6261064;22;20086;-73
2022/07/01 07:27:01;;;;;;;7.35;1.30;;;;;;;15.37;70.41;100417.34;6287483;22;20014;-72
2022/07/01 07:29:26;;;;;;;2.75;1.25;;;;;;;15.40;71.41;100416.75;6311520;22;20144;-73
2022/07/01 07:31:51;;;;;;;5.32;1.10;;;;;;;15.62;70.83;100423.59;6287447;22;20003;-73
2022/07/01 07:34:17;;;;;;;5.25;1.30;;;;;;;15.78;69.67;100419.50;6285992;22;20034;-71
2022/07/01 07:36:42;;;;;;;6.93;1.42;;;;;;;15.89;69.47;100422.91;6286606;22;20315;-73
2022/07/01 07:39:08;;;;;;;6.82;1.08;;;;;;;15.94;69.17;100419.25;6262130;22;20444;-73
2022/07/01 07:41:33;;;;;;;3.13;0.77;;;;;;;16.01;68.66;100414.97;6309714;22;20440;-73
2022/07/01 07:43:58;;;;;;;3.55;0.95;;;;;;;16.18;68.02;100424.63;6286725;22;20006;-72
2022/07/01 07:46:24;;;;;;;3.35;1.25;;;;;;;16.42;67.58;100424.44;6284270;22;20074;-72
2022/07/01 07:48:49;;;;;;;3.70;0.98;;;;;;;16.77;66.50;100419.34;6289109;22;20079;-72
2022/07/01 07:51:17;;;;;;;3.20;1.17;;;;;;;17.16;64.86;100429.03;6254531;22;20011;-74
2022/07/01 07:53:45;;;;;;;8.15;1.38;;;;;;;17.21;64.00;100426.13;6316846;22;20002;-75
2022/07/01 07:56:11;;;;;;;2.60;0.95;;;;;;;17.55;63.64;100433.13;6289901;22;20011;-75
2022/07/01 07:58:36;;;;;;;3.45;1.02;;;;;;;17.60;62.20;100434.94;6289000;22;20374;-74
2022/07/01 08:01:02;;;;;;;1.55;0.85;;;;;;;17.88;62.32;100430.09;6315814;22;20007;-76
2022/07/01 08:03:27;;;;;;;2.35;0.80;;;;;;;18.21;60.78;100432.63;6315203;22;20491;-75
2022/07/01 08:05:53;;;;;;;3.40;1.02;;;;;;;18.57;59.43;100442.69;6264671;22;20006;-75
2022/07/01 08:08:18;;;;;;;6.13;1.17;;;;;;;18.76;58.58;100447.16;6316726;22;20133;-75
2022/07/01 08:10:44;;;;;;;4.05;1.00;;;;;;;18.90;58.18;100450.69;6341770;22;20013;-76
2022/07/01 08:13:09;;;;;;;3.70;0.90;;;;;;;19.00;57.35;100455.91;6264832;22;20310;-74
2022/07/01 08:15:34;;;;;;;3.40;0.80;;;;;;;19.08;56.17;100448.75;6316211;22;20054;-75
2022/07/01 08:18:00;;;;;;;4.13;0.82;;;;;;;19.14;55.44;100447.47;6291309;22;20003;-74
2022/07/01 08:20:25;;;;;;;3.92;0.82;;;;;;;19.19;55.42;100443.72;6344294;22;20803;-75
2022/07/01 08:22:51;;;;;;;10.43;1.60;;;;;;;19.29;55.76;100448.97;6315085;22;20006;-75
2022/07/01 08:25:19;;;;;;;3.92;0.68;;;;;;;19.21;55.28;100440.63;6292618;22;20078;-76
2022/07/01 08:27:58;;;;;;;7.18;0.98;;;;;;;19.26;54.94;100449.63;6291892;22;20068;-75
2022/07/01 08:30:23;;;;;;;4.63;0.60;;;;;;;19.46;54.72;100448.13;6290171;22;20007;-76
2022/07/01 08:33:00;;;;;;;4.82;0.90;;;;;;;19.77;54.02;100454.66;6345870;22;20010;-75
2022/07/01 08:35:28;;;;;;;3.20;1.00;;;;;;;19.62;53.46;100454.03;6319340;22;20009;-76
2022/07/01 08:38:11;;;;;;;;;;;;;;;;;;;;;
2022/07/01 08:40:40;;;;;;;4.57;0.90;;;;;;;20.06;50.98;100465.09;6348144;22;20030;-77
2022/07/01 08:43:08;;;;;;;4.68;0.98;;;;;;;19.69;51.52;100457.13;6293971;22;20011;-75
2022/07/01 08:45:48;;;;;;;;;;;;;;;;;;;;;
2022/07/01 08:48:14;;;;;;;7.25;1.10;;;;;;;19.70;51.66;100463.50;6346560;22;20018;-76
2022/07/01 08:50:40;;;;;;;6.38;0.80;;;;;;;19.79;51.03;100469.06;6317336;22;20003;-75
2022/07/01 08:53:11;;;;;;;5.57;0.90;;;;;;;19.64;51.55;100453.69;6316236;22;20002;-77
2022/07/01 08:58:36;;;;;;;2.92;0.73;;;;;;;20.15;50.38;100445.66;6312085;22;20420;-75
2022/07/01 09:01:31;;;;;;;1.65;0.77;;;;;;;20.75;49.71;100469.66;6314957;22;20401;-77
2022/07/01 09:04:14;;;;;;;;;;;;;;;21.22;48.44;100477.09;6304411;22;20307;-75
2022/07/01 09:06:50;;;;;;;6.35;1.17;;;;;;;21.69;47.24;100480.88;6315687;22;19903;-74
2022/07/01 09:09:20;;;;;;;3.20;0.80;;;;;;;21.70;46.53;100483.31;6292867;22;20014;-74
2022/07/01 09:11:54;;;;;;;5.25;0.80;;;;;;;21.79;47.12;100478.50;6316555;22;20010;-75
2022/07/01 09:14:36;;;;;;;2.80;1.02;;;;;;;21.94;47.36;100476.25;6344643;22;19999;-75
2022/07/01 09:17:08;;;;;;;7.65;1.00;;;;;;;22.16;44.92;100461.09;6340848;22;20081;-77
2022/07/01 09:19:56;;;;;;;3.80;0.65;;;;;;;22.55;44.79;100477.59;6343105;22;20015;-79
2022/07/01 09:22:51;;;;;;;8.07;0.90;;;;;;;22.57;44.79;100461.34;6316428;22;20006;-79
2022/07/01 09:26:31;;;;;;;;;;;;;;;;;;;;;
2022/07/01 09:29:44;;;;;;;4.53;0.95;;;;;;;22.65;44.71;100485.50;6244097;22;20015;-79
2022/07/01 09:32:18;;;;;;;2.72;0.75;;;;;;;22.67;43.55;100464.47;6238589;22;20007;-78
2022/07/01 09:35:22;;;;;;;;;;;;;;;;;;;;;
2022/07/01 09:38:36;;;;;;;4.13;0.70;;;;;;;22.41;43.90;100480.69;6343485;22;20027;-78
2022/07/01 09:41:03;;;;;;;2.35;0.90;;;;;;;21.52;42.46;100474.28;6332220;22;20009;-75
2022/07/01 09:43:53;;;;;;;1.65;0.55;;;;;;;20.96;43.53;100480.03;6315480;22;20044;-76
2022/07/01 09:46:21;;;;;;;1.77;0.70;;;;;;;20.27;44.60;100473.56;6342169;22;19999;-76
2022/07/01 09:48:47;;;;;;;3.47;0.77;;;;;;;19.96;46.39;100471.84;6343034;22;20083;-76
2022/07/01 09:51:20;;;;;;;2.08;0.73;;;;;;;19.97;45.92;100473.44;6264061;22;20018;-75
2022/07/01 09:53:45;;;;;;;2.55;0.65;;;;;;;20.16;46.73;100478.63;6289849;22;20002;-75
2022/07/01 09:56:11;;;;;;;0.60;0.30;;;;;;;20.52;45.91;100487.72;6289472;22;20013;-73
2022/07/01 09:58:38;;;;;;;5.38;0.73;;;;;;;20.87;45.78;100495.94;6288895;22;20003;-75
2022/07/01 10:01:11;;;;;;;4.18;0.60;;;;;;;20.95;45.92;100483.94;6316071;22;20002;-76
2022/07/01 10:03:39;;;;;;;2.03;0.63;;;;;;;21.23;44.53;100489.03;6314918;22;20333;-74
2022/07/01 10:06:10;;;;;;;1.70;0.60;;;;;;;21.69;43.21;100503.16;6314889;22;20093;-74
2022/07/01 10:08:41;;;;;;;3.13;0.90;;;;;;;22.04;41.77;100500.06;6339835;22;20003;-75
2022/07/01 10:11:40;;;;;;;4.88;0.68;;;;;;;22.41;41.64;100492.66;6339630;22;20073;-74
2022/07/01 10:14:08;;;;;;;1.95;0.60;;;;;;;22.59;41.16;100492.44;6342378;22;19998;-75
2022/07/01 10:16:39;;;;;;;4.95;0.82;;;;;;;22.88;40.85;100493.41;6314199;22;20007;-75
2022/07/01 10:19:22;;;;;;;2.97;0.60;;;;;;;23.16;39.03;100497.16;6314541;22;20002;-77
2022/07/01 10:22:39;;;;;;;;;;;;;;;;;;;;;
2022/07/01 10:25:46;;;;;;;;;;;;;;;;;;;;;
2022/07/01 10:28:23;;;;;;;3.65;0.65;;;;;;;23.13;38.97;100497.88;6340475;22;20094;-75
2022/07/01 10:31:15;;;;;;;4.25;0.75;;;;;;;22.92;38.65;100488.78;6313703;22;20456;-76
2022/07/01 10:33:58;;;;;;;2.03;0.52;;;;;;;23.05;37.94;100490.38;6341461;22;20005;-75
2022/07/01 10:36:34;;;;;;;4.72;0.82;;;;;;;23.59;37.19;100497.66;6314541;22;20007;-76
2022/07/01 10:39:27;;;;;;;4.03;0.60;;;;;;;24.20;35.91;100502.22;6315237;22;19998;-75
2022/07/01 10:41:52;;;;;;;3.80;1.00;;;;;;;24.82;35.34;100504.66;6314176;22;19991;-74
2022/07/01 10:44:36;;;;;;;1.45;0.52;;;;;;;25.34;34.69;100502.72;6315443;22;20006;-76
2022/07/01 10:47:03;;;;;;;1.63;0.52;;;;;;;26.61;32.09;100506.91;6314692;22;20009;-76
2022/07/01 10:49:42;;;;;;;2.45;0.60;;;;;;;26.21;32.45;100504.56;6315347;22;20003;-74
2022/07/01 10:52:09;;;;;;;2.38;0.73;;;;;;;26.68;32.55;100511.03;6316149;22;20009;-76
2022/07/01 10:54:35;;;;;;;1.80;0.70;;;;;;;26.87;31.35;100508.19;6314740;22;20007;-75
2022/07/01 10:57:22;;;;;;;1.27;0.40;;;;;;;25.68;32.67;100493.88;6312489;22;20017;-76
2022/07/01 10:59:51;;;;;;;2.70;0.65;;;;;;;24.53;33.88;100480.72;6312951;22;20333;-74
2022/07/01 11:02:21;;;;;;;1.40;0.60;;;;;;;24.27;34.13;100484.03;6342862;22;20079;-74
2022/07/01 11:04:53;;;;;;;1.50;0.52;;;;;;;27.91;29.75;100502.44;6315932;22;20104;-76
2022/07/01 11:07:24;;;;;;;0.75;0.30;;;;;;;28.76;27.99;100496.13;6314938;22;20071;-75
2022/07/01 11:09:55;;;;;;;1.27;0.40;;;;;;;27.59;29.38;100509.25;6342570;22;20006;-74
2022/07/01 11:12:25;;;;;;;3.97;0.65;;;;;;;29.17;28.07;100510.09;6314129;22;20011;-78
2022/07/01 11:14:51;;;;;;;1.25;0.60;;;;;;;29.41;26.84;100519.97;6342585;22;20118;-75
2022/07/01 11:17:21;;;;;;;3.47;0.57;;;;;;;27.61;29.40;100506.91;6264288;22;20081;-76
2022/07/01 11:20:06;;;;;;;2.92;0.90;;;;;;;25.47;32.41;100495.03;6312469;22;20022;-76
2022/07/01 11:22:34;;;;;;;2.92;0.75;;;;;;;23.91;34.90;100499.81;6315870;22;20005;-77
2022/07/01 11:25:04;;;;;;;1.52;0.47;;;;;;;23.14;36.61;100521.81;6291129;22;20375;-77
2022/07/01 11:27:31;;;;;;;1.60;0.55;;;;;;;22.73;38.02;100520.81;6314187;22;20033;-75
2022/07/01 11:29:58;;;;;;;2.05;0.50;;;;;;;22.19;38.73;100518.91;6313444;22;20010;-75
2022/07/01 11:33:46;;;;;;;;;;;;;;;;;;;;;
2022/07/01 11:41:25;;;;;;;2.53;0.70;;;;;;;31.29;25.74;100531.72;6346276;22;20014;-77
2022/07/01 11:43:51;;;;;;;2.55;0.45;;;;;;;33.81;21.25;100524.44;6314426;22;20056;-77
2022/07/01 11:46:17;;;;;;;0.77;0.47;;;;;;;33.34;22.01;100522.13;6317818;22;20306;-76
2022/07/01 11:48:49;;;;;;;3.92;0.40;;;;;;;35.68;18.77;100522.72;6318954;22;20006;-76
2022/07/01 11:51:22;;;;;;;3.33;0.70;;;;;;;37.68;16.43;100507.66;6344034;22;20003;-76
2022/07/01 11:57:53;;;;;;;;;;;;;;;;;;;;;
2022/07/01 12:00:36;;;;;;;2.60;0.50;;;;;;;40.82;14.58;100485.94;6302357;22;20030;-76
2022/07/01 12:07:32;;;;;;;;;;;;;;;;;;;;;
2022/07/01 12:10:51;;;;;;;;;;;;;;;;;;;;;
2022/07/01 12:17:38;;;;;;;;;;;;;;;;;;;;;
2022/07/01 12:20:33;;;;;;;;;;;;;;;27.93;26.53;100481.19;6060151;23;20106;-75
2022/07/01 12:23:48;;;;;;;;;;;;;;;;;;;;;
2022/07/01 12:26:18;;;;;;;4.03;0.65;;;;;;;31.50;21.46;100469.53;6012031;23;20275;-75
2022/07/01 12:28:46;;;;;;;4.63;0.75;;;;;;;28.69;24.56;100477.22;6019863;23;20007;-73
2022/07/01 12:31:28;;;;;;;3.90;0.50;;;;;;;26.09;28.42;100443.88;6045138;23;20021;-74
2022/07/01 12:38:17;;;;;;;;;;;;;;;;;;;;;
2022/07/01 12:41:19;;;;;;;;;;;;;;;;;;;;;